Time;durP1;ratioP1;P1;durP2;ratioP2;P2;SDS_P1;SDS_P2;PMS_P1;PMS_P2;Temp;Humidity;BMP_temperature;BMP_pressure;BME280_temperature;BME280_humidity;BME280_pressure;Samples;Min_cycle;Max_cycle;Signal;HPM_P1;HPM_P2
2021/04/09 00:01:54;;;;;;;8.50;4.95;;;102.90;2227.20;;;;;;4872305;29;20550;-68
2021/04/09 00:04:20;;;;;;;7.38;4.80;;;102.90;2124.80;;;;;;4873244;29;20037;-73
2021/04/09 00:06:46;;;;;;;11.15;4.70;;;102.90;2176.00;;;;;;4875353;29;20495;-74
2021/04/09 00:09:12;;;;;;;7.32;4.85;;;102.90;2176.00;;;;;;4881146;29;20039;-73
2021/04/09 00:11:39;;;;;;;6.70;4.80;;;102.90;2124.80;;;;;;4863059;29;20414;-70
2021/04/09 00:14:07;;;;;;;7.20;4.30;;;102.90;2227.20;;;;;;4879518;29;20665;-74
2021/04/09 00:16:33;;;;;;;8.77;4.75;;;102.80;2099.20;;;;;;4880809;29;20543;-72
2021/04/09 00:19:00;;;;;;;7.65;4.63;;;102.70;2150.40;;;;;;4879031;29;20029;-73
2021/04/09 00:21:27;;;;;;;14.32;5.25;;;102.60;2176.00;;;;;;4878482;29;20043;-74
2021/04/09 00:23:53;;;;;;;10.77;5.50;;;102.60;2150.40;;;;;;4879556;29;20033;-73
2021/04/09 00:26:19;;;;;;;10.95;5.43;;;102.50;2176.00;;;;;;4880463;29;20021;-70
2021/04/09 00:28:44;;;;;;;10.75;5.80;;;102.50;2176.00;;;;;;4880897;29;20089;-73
2021/04/09 00:31:10;;;;;;;11.93;7.07;;;102.50;2201.60;;;;;;4881326;29;20502;-73
2021/04/09 00:33:36;;;;;;;12.70;6.80;;;102.40;2150.40;;;;;;4875841;29;20040;-72
2021/04/09 00:36:02;;;;;;;9.77;6.60;;;102.40;2150.40;;;;;;4881860;29;20487;-73
2021/04/09 00:38:28;;;;;;;12.30;6.97;;;;;;;;;;4883330;29;20025;-73
2021/04/09 00:40:54;;;;;;;11.50;6.22;;;102.40;2124.80;;;;;;4874094;29;20037;-71
2021/04/09 00:43:19;;;;;;;9.30;5.45;;;77.60;2150.40;;;;;;4879793;29;20495;-72
2021/04/09 00:45:45;;;;;;;9.35;6.00;;;77.60;2176.00;;;;;;4882550;29;20072;-68
2021/04/09 00:48:11;;;;;;;11.80;7.63;;;77.50;2227.20;;;;;;4869371;29;20042;-71
2021/04/09 00:50:37;;;;;;;14.25;8.88;;;77.50;2227.20;;;;;;4877010;29;20025;-70
2021/04/09 00:53:07;;;;;;;10.27;6.18;;;77.50;2227.20;;;;;;4880752;29;20025;-68
2021/04/09 00:55:34;;;;;;;9.38;5.85;;;77.40;2227.20;;;;;;4871813;29;20100;-72
2021/04/09 00:58:03;;;;;;;10.23;5.18;;;77.50;2227.20;;;;;;4882617;29;20033;-72
2021/04/09 01:00:29;;;;;;;8.20;4.70;;;77.30;2227.20;;;;;;4876624;29;20172;-69
2021/04/09 01:02:58;;;;;;;8.65;5.00;;;77.30;2227.20;;;;;;4865364;29;20532;-73
2021/04/09 01:05:23;;;;;;;8.05;4.97;;;77.30;2227.20;;;;;;4874675;29;20029;-73
2021/04/09 01:07:49;;;;;;;9.68;5.32;;;77.30;2227.20;;;;;;4874457;29;20036;-71
2021/04/09 01:10:17;;;;;;;11.30;5.03;;;77.30;2227.20;;;;;;4882322;29;20103;-70
2021/04/09 01:12:45;;;;;;;7.22;4.60;;;77.30;2227.20;;;;;;4881235;29;20153;-72
2021/04/09 01:15:13;;;;;;;8.38;4.75;;;77.30;2227.20;;;;;;4875820;29;20029;-74
2021/04/09 01:17:41;;;;;;;9.65;5.43;;;77.20;2227.20;;;;;;4875532;29;20057;-67
2021/04/09 01:20:28;;;;;;;10.52;4.90;;;77.20;2227.20;;;;;;4875239;29;20054;-71
2021/04/09 01:22:56;;;;;;;6.65;3.95;;;77.10;2227.20;;;;;;4869415;29;20044;-69
2021/04/09 01:26:03;;;;;;;6.00;3.80;;;77.30;2227.20;;;;;;4881310;29;20507;-73
2021/04/09 01:28:50;;;;;;;7.13;4.07;;;77.10;2227.20;;;;;;4880878;29;20033;-70
2021/04/09 01:31:41;;;;;;;6.07;4.20;;;77.00;2227.20;;;;;;4880813;29;20475;-73
2021/04/09 01:34:09;;;;;;;7.55;4.22;;;77.00;2227.20;;;;;;4876764;29;20090;-74
2021/04/09 01:36:44;;;;;;;6.53;3.97;;;77.00;2227.20;;;;;;4877022;29;20040;-73
2021/04/09 01:39:19;;;;;;;6.28;4.20;;;76.90;2227.20;;;;;;4881498;29;20029;-73
2021/04/09 01:41:46;;;;;;;8.23;4.25;;;76.90;2227.20;;;;;;4873535;29;20041;-72
2021/04/09 01:44:13;;;;;;;6.25;4.07;;;76.80;2227.20;;;;;;4880098;29;20376;-70
2021/04/09 01:46:42;;;;;;;6.88;4.38;;;76.90;2227.20;;;;;;4879923;29;20032;-73
2021/04/09 01:49:10;;;;;;;8.35;4.35;;;76.90;2227.20;;;;;;4874630;29;20026;-73
2021/04/09 01:51:36;;;;;;;7.05;4.57;;;76.80;2227.20;;;;;;4875783;29;20111;-72
2021/04/09 01:54:03;;;;;;;7.35;4.70;;;76.80;2227.20;;;;;;4869281;29;20029;-73
2021/04/09 01:56:31;;;;;;;9.68;4.72;;;76.90;2227.20;;;;;;4881111;29;20025;-70
2021/04/09 01:58:57;;;;;;;7.28;5.07;;;76.80;2227.20;;;;;;4863412;29;20100;-74
2021/04/09 02:01:24;;;;;;;12.30;5.93;;;77.10;2227.20;;;;;;4878673;29;20108;-73
2021/04/09 02:03:52;;;;;;;10.88;5.43;;;52.10;2227.20;;;;;;4870335;29;20506;-73
2021/04/09 02:06:18;;;;;;;8.95;5.00;;;52.10;2227.20;;;;;;4879500;29;20029;-76
2021/04/09 02:08:45;;;;;;;7.15;4.82;;;52.10;2227.20;;;;;;4877636;29;20037;-66
2021/04/09 02:11:11;;;;;;;9.52;4.90;;;52.10;2227.20;;;;;;4870052;29;20049;-74
2021/04/09 02:13:38;;;;;;;11.00;5.13;;;52.00;2227.20;;;;;;4867778;29;20158;-66
2021/04/09 02:16:05;;;;;;;8.73;4.75;;;52.00;2227.20;;;;;;4878660;29;20079;-74
2021/04/09 02:18:31;;;;;;;7.13;4.60;;;52.00;2227.20;;;;;;4878938;29;20085;-74
2021/04/09 02:21:01;;;;;;;8.23;4.50;;;51.90;2227.20;;;;;;4879508;29;20079;-72
2021/04/09 02:23:29;;;;;;;7.50;4.70;;;52.00;2227.20;;;;;;4879554;29;20438;-73
2021/04/09 02:25:56;;;;;;;8.52;4.53;;;52.00;2227.20;;;;;;4879898;29;20555;-73
2021/04/09 02:28:22;;;;;;;8.73;4.88;;;52.00;2227.20;;;;;;4879449;29;20476;-69
2021/04/09 02:31:02;;;;;;;6.80;4.55;;;52.00;2227.20;;;;;;4873889;29;20028;-73
2021/04/09 02:33:29;;;;;;;7.72;4.70;;;51.90;2227.20;;;;;;4869419;29;20033;-73
2021/04/09 02:35:54;;;;;;;9.00;5.25;;;51.90;2227.20;;;;;;4880653;29;20025;-71
2021/04/09 02:38:20;;;;;;;7.90;5.40;;;51.90;2227.20;;;;;;4880235;29;20080;-68
2021/04/09 02:40:48;;;;;;;9.48;5.85;;;51.90;2227.20;;;;;;4879608;29;20045;-67
2021/04/09 02:43:15;;;;;;;10.90;6.80;;;51.80;2227.20;;;;;;4879146;29;20048;-73
2021/04/09 02:45:41;;;;;;;11.23;6.72;;;51.80;2227.20;;;;;;4872931;29;20040;-71
2021/04/09 02:48:09;;;;;;;10.73;6.25;;;51.80;2227.20;;;;;;4877381;29;20033;-72
2021/04/09 02:50:44;;;;;;;11.77;6.15;;;51.80;2227.20;;;;;;4880249;29;20357;-72
2021/04/09 02:53:25;;;;;;;10.80;5.82;;;51.70;2227.20;;;;;;4881003;29;20037;-74
2021/04/09 02:55:52;;;;;;;12.68;7.03;;;51.70;2227.20;;;;;;4879463;29;20549;-71
2021/04/09 02:58:19;;;;;;;12.35;6.90;;;51.70;2227.20;;;;;;4880161;29;20460;-66
2021/04/09 03:00:49;;;;;;;10.80;5.78;;;51.70;2227.20;;;;;;4874742;29;20081;-68
2021/04/09 03:03:19;;;;;;;9.43;6.40;;;51.70;2227.20;;;;;;4867387;29;20042;-74
2021/04/09 03:05:47;;;;;;;8.07;5.60;;;51.70;2227.20;;;;;;4869719;29;20029;-73
2021/04/09 03:08:13;;;;;;;14.32;5.00;;;51.70;2227.20;;;;;;4880357;29;20387;-74
2021/04/09 03:10:40;;;;;;;8.77;4.50;;;51.60;2227.20;;;;;;4880467;29;20052;-70
2021/04/09 03:13:06;;;;;;;9.60;4.95;;;51.60;2227.20;;;;;;4878196;29;20052;-70
2021/04/09 03:15:38;;;;;;;7.55;4.40;;;51.60;2227.20;;;;;;4880811;29;20025;-73
2021/04/09 03:18:08;;;;;;;6.35;4.28;;;51.60;2227.20;;;;;;4871531;29;20037;-71
2021/04/09 03:20:34;;;;;;;5.72;4.00;;;51.50;2227.20;;;;;;4878115;29;20371;-67
2021/04/09 03:23:00;;;;;;;6.15;3.95;;;51.50;2227.20;;;;;;4878158;29;20505;-68
2021/04/09 03:25:25;;;;;;;5.47;3.90;;;51.40;2227.20;;;;;;4880524;29;20112;-67
2021/04/09 03:27:51;;;;;;;6.18;4.32;;;51.40;2227.20;;;;;;4881043;29;20088;-74
2021/04/09 03:30:20;;;;;;;6.55;3.78;;;51.30;2227.20;;;;;;4875240;29;20081;-67
2021/04/09 03:32:49;;;;;;;8.43;3.78;;;51.20;2227.20;;;;;;4869748;29;20041;-68
2021/04/09 03:35:18;;;;;;;7.18;3.60;;;51.20;2227.20;;;;;;4875501;29;20088;-70
2021/04/09 03:37:44;;;;;;;7.45;3.60;;;51.20;2227.20;;;;;;4876805;29;20048;-67
2021/04/09 03:40:11;;;;;;;9.43;4.00;;;51.20;2227.20;;;;;;4883941;29;20029;-69
2021/04/09 03:42:36;;;;;;;6.47;3.70;;;51.20;2227.20;;;;;;4884444;29;20392;-73
2021/04/09 03:45:07;;;;;;;12.18;6.28;;;51.30;2227.20;;;;;;4881637;29;20036;-67
2021/04/09 03:47:32;;;;;;;22.92;17.15;;;51.40;2227.20;;;;;;4884033;29;20077;-67
2021/04/09 03:49:59;;;;;;;11.57;6.28;;;51.20;2227.20;;;;;;4878450;29;20028;-73
2021/04/09 03:52:24;;;;;;;10.43;7.65;;;51.20;2227.20;;;;;;4866437;29;20040;-74
2021/04/09 03:54:50;;;;;;;7.85;5.78;;;51.20;2227.20;;;;;;4880602;29;20033;-73
2021/04/09 03:57:16;;;;;;;7.55;5.38;;;51.20;2227.20;;;;;;4883324;29;20056;-73
2021/04/09 03:59:42;;;;;;;6.45;4.43;;;26.50;2201.60;;;;;;4882678;29;20041;-67
2021/04/09 04:02:08;;;;;;;6.65;3.72;;;26.50;2201.60;;;;;;4880990;29;20045;-72
2021/04/09 04:04:35;;;;;;;6.47;3.85;;;51.20;2227.20;;;;;;4868156;29;20033;-68
2021/04/09 04:07:00;;;;;;;47.92;5.50;;;51.20;2227.20;;;;;;4873847;29;20037;-74
2021/04/09 04:09:26;;;;;;;20.95;4.72;;;51.20;2227.20;;;;;;4876439;29;20631;-72
2021/04/09 04:11:52;;;;;;;10.95;4.28;;;51.20;2227.20;;;;;;4878079;29;20053;-74
2021/04/09 04:14:17;;;;;;;7.45;3.90;;;51.20;2227.20;;;;;;4882515;29;20040;-74
2021/04/09 04:16:43;;;;;;;11.95;3.75;;;51.30;2227.20;;;;;;4871340;29;20040;-69
2021/04/09 04:19:09;;;;;;;10.90;4.10;;;51.30;2227.20;;;;;;4873753;29;20387;-74
2021/04/09 04:21:35;;;;;;;12.07;7.18;;;51.30;2227.20;;;;;;4878970;29;20041;-71
2021/04/09 04:24:01;;;;;;;21.17;10.88;;;51.30;2227.20;;;;;;4880436;29;20033;-68
2021/04/09 04:26:27;;;;;;;15.82;11.43;;;51.40;2227.20;;;;;;4872072;29;20479;-70
2021/04/09 04:28:53;;;;;;;19.48;9.95;;;51.40;2227.20;;;;;;4870900;29;20044;-69
2021/04/09 04:31:20;;;;;;;16.42;8.50;;;51.50;2227.20;;;;;;4872979;29;20029;-68
2021/04/09 04:33:46;;;;;;;11.05;6.45;;;51.60;2227.20;;;;;;4880499;29;20411;-72
2021/04/09 04:36:11;;;;;;;10.50;6.00;;;51.80;2227.20;;;;;;4880683;29;20048;-72
2021/04/09 04:38:37;;;;;;;10.38;5.82;;;52.10;2227.20;;;;;;4876260;29;20036;-69
2021/04/09 04:41:03;;;;;;;8.35;4.35;;;77.00;2227.20;;;;;;4877247;29;20476;-73
2021/04/09 04:43:29;;;;;;;8.30;4.40;;;77.30;2227.20;;;;;;4878592;29;20068;-68
2021/04/09 04:45:54;;;;;;;7.97;4.30;;;77.70;2227.20;;;;;;4869636;29;20064;-73
2021/04/09 04:48:20;;;;;;;11.45;5.90;;;102.70;2227.20;;;;;;4874584;29;20037;-75
2021/04/09 04:50:46;;;;;;;12.45;6.25;;;103.10;2227.20;;;;;;4872734;29;20032;-72
2021/04/09 04:53:12;;;;;;;12.85;8.40;;;128.30;2227.20;;;;;;4870086;29;20033;-70
2021/04/09 04:55:37;;;;;;;15.60;8.25;;;128.70;2201.60;;;;;;4874178;29;20025;-69
2021/04/09 04:58:03;;;;;;;13.68;6.57;;;153.70;2124.80;;;;;;4874983;29;20101;-71
2021/04/09 05:00:29;;;;;;;11.55;7.30;;;154.10;2048.00;;;;;;4874815;29;20031;-74
2021/04/09 05:02:54;;;;;;;9.80;5.97;;;154.40;1996.80;;;;;;4866679;29;20049;-64
2021/04/09 05:05:21;;;;;;;14.02;7.95;;;;;;;;;;4877771;29;20025;-71
2021/04/09 05:07:47;;;;;;;10.50;6.05;;;;;;;;;;4879702;29;20029;-76
2021/04/09 05:10:13;;;;;;;11.68;6.55;;;;;;;;;;4878031;29;20241;-76
2021/04/09 05:12:40;;;;;;;7.43;5.50;;;;;;;;;;4879710;29;20136;-64
2021/04/09 05:15:07;;;;;;;8.15;4.70;;;;;;;;;;4880048;29;20029;-71
2021/04/09 05:17:35;;;;;;;10.90;7.20;;;;;;;;;;4878967;29;20028;-73
2021/04/09 05:20:01;;;;;;;6.13;4.93;;;;;;;;;;4879542;29;20028;-65
2021/04/09 05:22:27;;;;;;;14.05;6.28;;;;;;;;;;4878010;29;20041;-63
2021/04/09 05:24:53;;;;;;;23.95;13.82;;;;;;;;;;4878813;29;20033;-72
2021/04/09 05:27:19;;;;;;;21.30;11.15;;;;;;;;;;4879048;29;20025;-72
2021/04/09 05:29:45;;;;;;;12.38;6.65;;;;;;;;;;4877018;29;20036;-67
2021/04/09 05:32:12;;;;;;;9.75;6.22;;;;;;;;;;4876697;29;20025;-66
2021/04/09 05:34:38;;;;;;;8.55;5.28;;;;;;;;;;4867182;29;20037;-65
2021/04/09 05:37:07;;;;;;;8.90;4.75;;;;;;;;;;4870322;29;20037;-64
2021/04/09 05:39:33;;;;;;;9.35;4.00;;;;;;;;;;4873424;29;20029;-64
2021/04/09 05:42:02;;;;;;;8.50;3.90;;;;;;;;;;4867160;29;20120;-66
2021/04/09 05:44:30;;;;;;;6.90;4.38;;;;;;;;;;4877157;29;20544;-66
2021/04/09 05:46:56;;;;;;;7.95;4.40;;;;;;;;;;4867168;29;20369;-68
2021/04/09 05:49:22;;;;;;;8.20;4.15;;;;;;;;;;4878081;29;20058;-66
2021/04/09 05:51:48;;;;;;;10.23;5.88;;;;;;;;;;4860369;29;20041;-66
2021/04/09 05:54:17;;;;;;;16.48;10.77;;;;;;;;;;4865290;29;20037;-68
2021/04/09 05:56:43;;;;;;;18.17;11.57;;;;;;;;;;4863334;29;20065;-66
2021/04/09 05:59:09;;;;;;;12.98;8.13;;;;;;;;;;4874054;29;20080;-67
2021/04/09 06:01:35;;;;;;;8.82;7.00;;;384.50;972.80;;;;;;4865635;29;20117;-66
2021/04/09 06:04:00;;;;;;;11.32;6.20;;;384.50;998.40;;;;;;4874905;29;20128;-66
2021/04/09 06:06:26;;;;;;;8.32;6.50;;;384.20;1024.00;;;;;;4871449;29;20021;-68
2021/04/09 06:08:52;;;;;;;14.73;7.32;;;359.30;1024.00;;;;;;4870524;29;20479;-65
2021/04/09 06:11:17;;;;;;;15.25;8.13;;;359.20;1049.60;;;;;;4875742;29;20057;-69
2021/04/09 06:13:43;;;;;;;14.80;8.90;;;359.20;1049.60;;;;;;4871150;29;20417;-65
2021/04/09 06:16:09;;;;;;;20.73;10.23;;;359.30;1049.60;;;;;;4868630;29;20029;-66
2021/04/09 06:18:35;;;;;;;23.23;10.48;;;358.80;1049.60;;;;;;4870346;29;20487;-68
2021/04/09 06:21:01;;;;;;;22.08;12.05;;;384.80;998.40;;;;;;4875906;29;20086;-67
2021/04/09 06:23:27;;;;;;;24.10;12.45;;;384.30;1024.00;;;;;;4872809;29;20045;-65
2021/04/09 06:25:52;;;;;;;27.52;12.57;;;384.50;998.40;;;;;;4869823;29;20116;-69
2021/04/09 06:28:18;;;;;;;19.52;11.10;;;409.80;998.40;;;;;;4875747;29;20029;-70
2021/04/09 06:30:44;;;;;;;21.95;11.65;;;409.80;998.40;;;;;;4877184;29;20029;-69
2021/04/09 06:33:10;;;;;;;19.35;10.27;;;;;;;;;;4869774;29;20033;-69
2021/04/09 06:35:36;;;;;;;14.85;7.82;;;;;;;;;;4868959;29;20036;-71
2021/04/09 06:38:02;;;;;;;11.32;6.47;;;;;;;;;;4875350;29;20044;-69
2021/04/09 06:40:29;;;;;;;12.13;6.95;;;;;;;;;;4869727;29;20033;-68
2021/04/09 06:42:55;;;;;;;11.00;6.38;;;;;;;;;;4866258;29;20048;-67
2021/04/09 06:45:22;;;;;;;9.57;5.85;;;;;;;;;;4873173;29;20029;-69
2021/04/09 06:47:48;;;;;;;8.95;5.72;;;;;;;;;;4872831;29;20117;-66
2021/04/09 06:50:14;;;;;;;11.38;5.97;;;;;;;;;;4873396;29;20392;-67
2021/04/09 06:52:40;;;;;;;10.98;6.40;;;;;;;;;;4874357;29;20037;-67
2021/04/09 06:55:09;;;;;;;11.18;5.53;;;;;;;;;;4867590;29;20036;-65
2021/04/09 06:57:35;;;;;;;10.35;5.57;;;;;;;;;;4869718;29;20029;-66
2021/04/09 07:00:05;;;;;;;11.63;5.10;;;;;;;;;;4877799;29;20032;-65
2021/04/09 07:02:34;;;;;;;7.93;4.97;;;;;;;;;;4876647;29;20033;-66
2021/04/09 07:05:00;;;;;;;8.52;5.18;;;;;;;;;;4877091;29;20149;-66
2021/04/09 07:07:26;;;;;;;8.65;4.65;;;;;;;;;;4877633;29;20037;-65
2021/04/09 07:09:52;;;;;;;8.50;4.55;;;;;;;;;;4874238;29;20389;-67
2021/04/09 07:12:28;;;;;;;8.63;4.72;;;;;;;;;;4870904;29;20128;-67
2021/04/09 07:14:56;;;;;;;11.45;4.65;;;;;;;;;;4851169;29;20140;-67
2021/04/09 07:17:27;;;;;;;7.15;4.68;;;;;;;;;;4874579;29;20173;-68
2021/04/09 07:20:12;;;;;;;9.85;4.30;;;;;;;;;;4879208;29;20049;-68
2021/04/09 07:22:39;;;;;;;7.15;4.32;;;;;;;;;;4878008;29;20483;-67
2021/04/09 07:25:07;;;;;;;7.43;4.60;;;;;;;;;;4879756;29;20125;-69
2021/04/09 07:27:33;;;;;;;8.35;5.07;;;;;;;;;;4872895;29;20029;-66
2021/04/09 07:29:59;;;;;;;7.72;4.30;;;;;;;;;;4873691;29;20025;-65
2021/04/09 07:32:26;;;;;;;8.25;4.57;;;;;;;;;;4875588;29;20036;-66
2021/04/09 07:34:59;;;;;;;7.10;4.40;;;;;;;;;;4869200;29;20041;-67
2021/04/09 07:37:27;;;;;;;6.78;4.70;;;;;;;;;;4868460;29;20025;-67
2021/04/09 07:39:57;;;;;;;6.25;4.10;;;;;;;;;;4875561;29;20045;-65
2021/04/09 07:42:30;;;;;;;9.00;4.53;;;;;;;;;;4862235;29;20036;-66
2021/04/09 07:44:58;;;;;;;;;;;;;;;;;;4880201;29;20037;-66
2021/04/09 07:47:28;;;;;;;6.00;4.20;;;;;;;;;;4881987;29;19951;-66
2021/04/09 07:50:20;;;;;;;12.68;4.88;;;;;;;;;;4873816;29;20029;-66
2021/04/09 07:52:49;;;;;;;8.13;4.65;;;;;;;;;;4863827;29;20080;-67
2021/04/09 07:55:18;;;;;;;15.27;4.72;;;;;;;;;;4869911;29;20144;-66
2021/04/09 07:57:45;;;;;;;6.15;3.95;;;;;;;;;;4874478;29;20036;-67
2021/04/09 08:00:27;;;;;;;6.18;4.20;;;;;;;;;;4880289;29;20029;-67
2021/04/09 08:02:56;;;;;;;6.25;3.85;;;;;;;;;;4878181;29;20128;-66
2021/04/09 08:05:24;;;;;;;7.93;5.50;;;;;;;;;;4878853;29;20112;-68
2021/04/09 08:07:50;;;;;;;10.15;5.13;;;;;;;;;;4881113;29;20125;-67
2021/04/09 08:10:19;;;;;;;12.43;5.35;;;;;;;;;;4863440;29;20116;-67
2021/04/09 08:12:53;;;;;;;8.00;4.22;;;;;;;;;;4878708;29;20145;-65
2021/04/09 08:15:24;;;;;;;8.13;4.70;;;;;;;;;;4877723;29;20112;-67
2021/04/09 08:17:59;;;;;;;7.88;4.55;;;;;;;;;;4879571;29;20040;-66
2021/04/09 08:20:26;;;;;;;17.67;10.82;;;;;;;;;;4877687;29;20031;-65
2021/04/09 08:22:54;;;;;;;6.85;4.40;;;;;;;;;;4877499;29;20059;-66
2021/04/09 08:25:21;;;;;;;10.20;5.40;;;;;;;;;;4880566;29;20153;-67
2021/04/09 08:27:48;;;;;;;29.65;13.25;;;;;;;;;;4876774;29;20072;-65
2021/04/09 08:30:14;;;;;;;11.77;6.35;;;;;;;;;;4877870;29;20037;-65
2021/04/09 08:32:41;;;;;;;14.38;7.07;;;;;;;;;;4873277;29;20029;-68
2021/04/09 08:35:10;;;;;;;8.40;5.10;;;;;;;;;;4869614;29;20551;-66
2021/04/09 08:37:36;;;;;;;6.00;4.18;;;;;;;;;;4874936;29;20033;-66
2021/04/09 08:40:08;;;;;;;7.03;4.30;;;;;;;;;;4874954;29;20037;-67
2021/04/09 08:42:34;;;;;;;10.13;4.47;;;;;;;;;;4868389;29;20173;-67
2021/04/09 08:45:04;;;;;;;7.30;4.53;;;;;;;;;;4877403;29;20036;-66
2021/04/09 08:47:31;;;;;;;8.95;5.03;;;;;;;;;;4869786;29;20109;-78
2021/04/09 08:50:00;;;;;;;10.68;5.68;;;333.20;1100.80;;;;;;4871782;29;20041;-76
2021/04/09 08:52:27;;;;;;;7.43;4.32;;;333.20;1100.80;;;;;;4861657;29;20034;-81
2021/04/09 08:54:56;;;;;;;11.73;4.78;;;333.20;1049.60;;;;;;4873317;29;20025;-79
2021/04/09 08:57:32;;;;;;;8.77;4.72;;;332.80;1254.40;;;;;;4879815;29;20025;-66
2021/04/09 09:00:06;;;;;;;6.07;4.15;;;332.90;1203.20;;;;;;4879261;29;20441;-83
2021/04/09 09:02:50;;;;;;;6.18;3.90;;;332.80;1100.80;;;;;;4878169;29;20050;-85
2021/04/09 09:05:30;;;;;;;7.03;4.07;;;332.90;1075.20;;;;;;4879880;29;20021;-79
2021/04/09 09:07:57;;;;;;;7.25;3.90;;;332.80;1100.80;;;;;;4879726;29;20029;-75
2021/04/09 09:10:24;;;;;;;8.73;4.13;;;332.90;1152.00;;;;;;4877022;29;20495;-67
2021/04/09 09:13:17;;;;;;;5.35;3.92;;;332.90;1075.20;;;;;;4878951;29;20070;-77
2021/04/09 09:15:45;;;;;;;6.38;3.83;;;332.90;1075.20;;;;;;4879255;29;20531;-66
2021/04/09 09:18:20;;;;;;;9.32;4.38;;;333.10;1024.00;;;;;;4871562;29;20038;-81
2021/04/09 09:21:05;;;;;;;5.28;3.83;;;333.10;1024.00;;;;;;4878995;29;20503;-79
2021/04/09 09:23:53;;;;;;;10.15;3.85;;;333.00;998.40;;;;;;4878365;29;20045;-74
2021/04/09 09:26:28;;;;;;;7.82;4.30;;;307.90;1024.00;;;;;;4879482;29;20104;-72
2021/04/09 09:29:12;;;;;;;6.25;4.00;;;307.90;998.40;;;;;;4879179;29;20100;-79
2021/04/09 09:31:45;;;;;;;7.78;4.25;;;307.60;1049.60;;;;;;4877903;29;20033;-76
2021/04/09 09:34:17;;;;;;;8.77;4.97;;;307.70;1075.20;;;;;;4869736;29;20040;-76
2021/04/09 09:37:11;;;;;;;7.00;4.45;;;308.00;1152.00;;;;;;4879142;29;20496;-68
2021/04/09 09:39:43;;;;;;;8.50;4.70;;;332.80;1152.00;;;;;;4873316;29;20029;-68
2021/04/09 09:42:12;;;;;;;6.32;4.35;;;332.90;1049.60;;;;;;4868400;29;20112;-77
2021/04/09 09:44:42;;;;;;;11.07;4.30;;;332.80;1049.60;;;;;;4861334;29;20040;-72
2021/04/09 09:47:26;;;;;;;7.25;4.10;;;332.90;1100.80;;;;;;4844456;29;20033;-67
2021/04/09 09:50:04;;;;;;;6.82;4.38;;;333.00;1075.20;;;;;;4860973;29;20037;-69
2021/04/09 09:55:28;;;;;;;9.27;4.35;;;332.80;1075.20;;;;;;4803551;29;20518;-75
2021/04/09 09:57:54;;;;;;;7.72;4.70;;;;;;;;;;4805515;29;20046;-73
2021/04/09 10:00:31;;;;;;;10.02;5.18;;;;;;;;;;4804348;29;20057;-80
2021/04/09 10:03:11;;;;;;;10.57;6.50;;;;;;;;;;4912646;24;20061;-74
2021/04/09 10:05:37;;;;;;;6.38;4.53;;;;;;;;;;4841735;29;20559;-66
2021/04/09 10:08:04;;;;;;;8.45;5.07;;;;;;;;;;4840615;29;20038;-76
2021/04/09 10:10:40;;;;;;;15.82;4.90;;;;;;;;;;4827780;29;20034;-70
2021/04/09 10:13:18;;;;;;;9.52;4.85;;;;;;;;;;4830136;29;20061;-66
2021/04/09 10:15:45;;;;;;;6.53;4.45;;;;;;;;;;4834058;29;20036;-66
2021/04/09 10:18:11;;;;;;;6.90;4.70;;;307.70;1024.00;;;;;;4836226;29;20078;-77
2021/04/09 10:20:38;;;;;;;12.23;5.25;;;307.50;1049.60;;;;;;4836110;29;20026;-77
2021/04/09 10:23:04;;;;;;;6.72;5.00;;;307.90;1126.40;;;;;;4835537;29;20694;-76
2021/04/09 10:25:35;;;;;;;8.02;4.65;;;308.10;1152.00;;;;;;4833251;29;20018;-72
2021/04/09 10:28:10;;;;;;;17.13;5.40;;;332.80;1100.80;;;;;;4824930;29;20048;-73
2021/04/09 10:30:36;;;;;;;6.38;4.47;;;333.00;1126.40;;;;;;4823040;29;20086;-77
2021/04/09 10:33:02;;;;;;;6.53;5.05;;;333.00;1024.00;;;;;;4825026;29;20377;-74
2021/04/09 10:35:28;;;;;;;8.45;4.88;;;332.80;1075.20;;;;;;4825510;29;20030;-71
2021/04/09 10:38:16;;;;;;;9.35;5.53;;;332.90;1152.00;;;;;;4826208;29;20035;-71
2021/04/09 10:40:55;;;;;;;11.75;5.72;;;333.10;1126.40;;;;;;4844695;29;20041;-75
2021/04/09 10:43:34;;;;;;;6.80;4.75;;;333.30;1126.40;;;;;;4831041;29;20438;-78
2021/04/09 10:46:14;;;;;;;11.10;5.28;;;333.30;1075.20;;;;;;4823256;29;20036;-65
2021/04/09 10:48:41;;;;;;;11.20;5.60;;;333.40;1126.40;;;;;;4823905;29;20382;-80
2021/04/09 10:51:10;;;;;;;7.18;5.25;;;333.30;1100.80;;;;;;4822665;29;20031;-67
2021/04/09 10:53:40;;;;;;;8.23;5.20;;;333.30;1049.60;;;;;;4822944;29;20033;-76
2021/04/09 10:56:10;;;;;;;12.20;5.20;;;333.30;1075.20;;;;;;4834309;29;20030;-77
2021/04/09 10:58:41;;;;;;;8.85;5.15;;;333.20;1049.60;;;;;;4822843;29;20042;-77
2021/04/09 11:01:07;;;;;;;9.02;5.03;;;333.20;1100.80;;;;;;4823023;29;20078;-78
2021/04/09 11:03:36;;;;;;;8.10;5.80;;;333.10;1075.20;;;;;;4826175;29;20046;-78
2021/04/09 11:06:02;;;;;;;22.42;11.20;;;333.20;1075.20;;;;;;4834164;29;20022;-73
2021/04/09 11:08:39;;;;;;;12.57;6.68;;;333.30;1126.40;;;;;;4832299;29;20041;-69
2021/04/09 11:11:08;;;;;;;9.73;5.57;;;333.20;1075.20;;;;;;4833708;29;20492;-70
2021/04/09 11:13:39;;;;;;;8.20;5.55;;;333.10;1075.20;;;;;;4834278;29;20045;-69
2021/04/09 11:16:06;;;;;;;7.93;5.20;;;333.20;1100.80;;;;;;4837625;29;20030;-69
2021/04/09 11:18:55;;;;;;;9.88;5.30;;;333.20;1049.60;;;;;;4838341;29;20034;-70
2021/04/09 11:21:43;;;;;;;11.45;6.45;;;333.20;1049.60;;;;;;4838234;29;20028;-68
2021/04/09 11:24:10;;;;;;;11.50;7.03;;;333.40;1126.40;;;;;;4833307;29;20082;-68
2021/04/09 11:26:36;;;;;;;6.20;4.75;;;333.50;1049.60;;;;;;4837582;29;20034;-68
2021/04/09 11:29:03;;;;;;;9.18;5.32;;;333.50;972.80;;;;;;4835803;29;20037;-69
2021/04/09 11:31:29;;;;;;;9.63;5.15;;;333.50;1049.60;;;;;;4835465;29;20030;-68
2021/04/09 11:34:03;;;;;;;11.02;5.68;;;333.50;1049.60;;;;;;4836141;29;20030;-69
2021/04/09 11:36:36;;;;;;;13.30;5.72;;;333.60;1049.60;;;;;;4834758;29;20022;-69
2021/04/09 11:39:17;;;;;;;7.57;5.47;;;333.60;1049.60;;;;;;4829845;29;20034;-69
2021/04/09 11:41:45;;;;;;;7.68;4.93;;;333.70;1024.00;;;;;;4840127;29;20030;-69
2021/04/09 11:44:31;;;;;;;8.88;5.22;;;333.30;972.80;;;;;;4835191;29;20496;-68
2021/04/09 11:47:17;;;;;;;7.65;5.22;;;332.90;998.40;;;;;;4833983;29;20083;-67
2021/04/09 11:49:43;;;;;;;12.20;5.45;;;333.00;1049.60;;;;;;4839689;29;20070;-71
2021/04/09 11:52:09;;;;;;;7.80;4.55;;;333.10;1075.20;;;;;;4829870;29;20038;-70
2021/04/09 11:54:38;;;;;;;12.02;5.53;;;333.20;1049.60;;;;;;4835271;29;20030;-67
2021/04/09 11:57:04;;;;;;;7.00;4.50;;;333.30;1024.00;;;;;;4836412;29;20083;-67
2021/04/09 11:59:36;;;;;;;10.30;5.30;;;333.40;1075.20;;;;;;4837243;29;20558;-69
2021/04/09 12:02:28;;;;;;;8.48;5.15;;;333.50;1049.60;;;;;;4843146;29;20086;-66
2021/04/09 12:04:55;;;;;;;5.88;4.60;;;333.50;1024.00;;;;;;4833178;29;20094;-69
2021/04/09 12:07:25;;;;;;;7.32;4.53;;;333.50;1049.60;;;;;;4841881;29;20041;-67
2021/04/09 12:09:52;;;;;;;6.85;4.43;;;333.50;998.40;;;;;;4832384;29;20516;-66
2021/04/09 12:12:20;;;;;;;7.18;4.85;;;333.50;998.40;;;;;;4834896;29;20489;-67
2021/04/09 12:14:49;;;;;;;12.65;5.10;;;333.60;1024.00;;;;;;4835855;29;20397;-67
2021/04/09 12:17:16;;;;;;;6.20;4.28;;;333.60;1024.00;;;;;;4839098;29;20026;-69
2021/04/09 12:19:44;;;;;;;8.30;4.05;;;333.50;972.80;;;;;;4838205;29;20038;-69
2021/04/09 12:22:11;;;;;;;21.95;6.88;;;333.50;998.40;;;;;;4834445;29;20216;-69
2021/04/09 12:24:37;;;;;;;7.00;4.35;;;333.60;1049.60;;;;;;4841054;29;20109;-70
2021/04/09 12:27:05;;;;;;;11.50;4.80;;;333.60;1024.00;;;;;;4842624;29;20045;-69
2021/04/09 12:29:31;;;;;;;8.70;4.90;;;333.70;1024.00;;;;;;4841164;29;20117;-69
2021/04/09 12:31:57;;;;;;;7.82;4.50;;;333.70;998.40;;;;;;4842934;29;20045;-67
2021/04/09 12:34:23;;;;;;;9.00;4.95;;;333.60;998.40;;;;;;4837161;29;20030;-67
2021/04/09 12:36:50;;;;;;;8.35;4.40;;;333.60;998.40;;;;;;4840737;29;20046;-69
2021/04/09 12:39:17;;;;;;;9.13;5.45;;;333.40;947.20;;;;;;4841311;29;20030;-69
2021/04/09 12:41:43;;;;;;;16.25;5.28;;;333.20;972.80;;;;;;4843136;29;20033;-69
2021/04/09 12:44:11;;;;;;;8.10;4.95;;;333.20;1024.00;;;;;;4843163;29;20056;-67
2021/04/09 12:46:37;;;;;;;6.63;4.47;;;333.30;972.80;;;;;;4842173;29;20044;-67
2021/04/09 12:49:04;;;;;;;7.72;4.38;;;333.30;1024.00;;;;;;4838971;29;20034;-66
2021/04/09 12:51:30;;;;;;;7.25;4.55;;;333.30;998.40;;;;;;4843320;29;20022;-68
2021/04/09 12:53:56;;;;;;;5.75;4.15;;;333.40;1024.00;;;;;;4823824;29;20442;-67
2021/04/09 12:56:22;;;;;;;11.15;7.63;;;333.50;1024.00;;;;;;4841239;29;20026;-66
2021/04/09 12:58:48;;;;;;;8.50;4.90;;;333.40;947.20;;;;;;4838128;29;20034;-68
2021/04/09 13:01:14;;;;;;;9.82;4.47;;;333.20;972.80;;;;;;4842584;29;20056;-74
2021/04/09 13:03:40;;;;;;;6.80;4.38;;;333.30;998.40;;;;;;4821928;29;20580;-69
2021/04/09 13:06:08;;;;;;;6.32;4.80;;;333.40;998.40;;;;;;4842369;29;20113;-69